createdAt,value
2019-03-11T00:01:59.076Z,74.90
2019-03-11T00:04:26.295Z,74.50
2019-03-11T00:06:53.309Z,75.00
2019-03-11T00:09:19.618Z,74.50
2019-03-11T00:11:46.238Z,74.60
2019-03-11T00:14:12.666Z,74.50
2019-03-11T00:16:38.997Z,74.40
2019-03-11T00:19:05.291Z,74.30
2019-03-11T00:21:31.689Z,74.20
2019-03-11T00:23:57.982Z,74.20
2019-03-11T00:26:24.271Z,73.80
2019-03-11T00:28:50.623Z,73.80
2019-03-11T00:31:17.013Z,74.10
2019-03-11T00:33:43.306Z,74.10
2019-03-11T00:36:09.622Z,74.00
2019-03-11T00:38:36.041Z,74.20
2019-03-11T00:41:02.457Z,74.00
2019-03-11T00:43:28.861Z,74.10
2019-03-11T00:45:55.150Z,73.80
2019-03-11T00:48:21.445Z,73.90
2019-03-11T00:50:47.845Z,73.70
2019-03-11T00:53:14.243Z,73.60
2019-03-11T00:55:40.574Z,73.80
2019-03-11T00:58:06.879Z,73.80
2019-03-11T01:00:35.449Z,73.80
2019-03-11T01:03:01.761Z,74.00
2019-03-11T01:05:28.058Z,73.90
2019-03-11T01:07:54.386Z,73.70
2019-03-11T01:10:20.776Z,73.70
2019-03-11T01:12:47.296Z,73.80
2019-03-11T01:15:14.016Z,73.60
2019-03-11T01:17:40.411Z,73.70
2019-03-11T01:20:09.049Z,73.60
2019-03-11T01:22:35.452Z,73.60
2019-03-11T01:25:01.854Z,73.50
2019-03-11T01:27:28.168Z,73.40
2019-03-11T01:29:54.562Z,73.20
2019-03-11T01:32:20.908Z,73.30
2019-03-11T01:34:47.290Z,73.20
2019-03-11T01:37:13.691Z,73.20
2019-03-11T01:39:40.004Z,73.20
2019-03-11T01:42:06.293Z,73.10
2019-03-11T01:44:32.622Z,72.80
2019-03-11T01:46:59.141Z,72.80
2019-03-11T01:49:25.450Z,72.80
2019-03-11T01:51:51.763Z,72.60
2019-03-11T01:54:18.146Z,73.00
2019-03-11T01:56:44.486Z,72.70
2019-03-11T01:59:10.881Z,72.80
2019-03-11T02:01:37.284Z,72.80
2019-03-11T02:04:03.694Z,72.70
2019-03-11T02:06:30.099Z,72.80
2019-03-11T02:08:56.433Z,72.70
2019-03-11T02:11:22.841Z,72.70
2019-03-11T02:13:49.141Z,72.60
2019-03-11T02:16:15.670Z,72.60
2019-03-11T02:18:41.958Z,72.60
2019-03-11T02:21:08.395Z,72.50
2019-03-11T02:23:34.706Z,73.30
2019-03-11T02:26:01.485Z,72.50
2019-03-11T02:28:27.901Z,72.60
2019-03-11T02:30:54.208Z,72.50
2019-03-11T02:33:20.662Z,72.20
2019-03-11T02:35:46.930Z,71.90
2019-03-11T02:38:13.533Z,71.80
2019-03-11T02:40:39.957Z,72.00
2019-03-11T02:43:06.459Z,71.90
2019-03-11T02:45:32.775Z,72.20
2019-03-11T02:47:59.178Z,71.90
2019-03-11T02:50:25.586Z,71.90
2019-03-11T02:52:52.002Z,72.00
2019-03-11T02:55:18.403Z,71.70
2019-03-11T02:57:44.850Z,71.90
2019-03-11T03:00:14.753Z,71.70
2019-03-11T03:02:45.664Z,71.70
2019-03-11T03:05:13.878Z,71.60
2019-03-11T03:07:40.185Z,71.60
2019-03-11T03:10:08.109Z,71.70
2019-03-11T03:12:34.531Z,71.70
2019-03-11T03:15:00.938Z,71.70
2019-03-11T03:17:27.233Z,71.60
2019-03-11T03:19:53.843Z,71.60
2019-03-11T03:22:20.170Z,71.70
2019-03-11T03:24:46.503Z,71.50
2019-03-11T03:27:12.769Z,71.60
2019-03-11T03:29:39.178Z,71.60
2019-03-11T03:32:05.486Z,71.60
2019-03-11T03:34:32.005Z,71.50
2019-03-11T03:36:58.903Z,71.70
2019-03-11T03:39:25.287Z,71.60
2019-03-11T03:41:51.695Z,71.50
2019-03-11T03:44:18.076Z,71.60
2019-03-11T03:46:44.353Z,71.50
2019-03-11T03:49:10.747Z,71.10
2019-03-11T03:51:37.045Z,71.20
2019-03-11T03:54:03.546Z,71.20
2019-03-11T03:56:31.127Z,71.00
2019-03-11T03:58:57.641Z,71.20
2019-03-11T04:01:24.031Z,71.00
2019-03-11T04:03:50.351Z,71.00
2019-03-11T04:06:16.754Z,70.90
2019-03-11T04:08:43.192Z,71.00
2019-03-11T04:11:09.701Z,70.90
2019-03-11T04:13:36.111Z,70.80
2019-03-11T04:16:05.833Z,70.90
2019-03-11T04:18:52.505Z,71.50
2019-03-11T04:21:18.823Z,72.40
2019-03-11T04:23:51.306Z,72.50
2019-03-11T04:26:17.546Z,72.50
2019-03-11T04:28:43.854Z,72.90
2019-03-11T04:31:10.638Z,73.10
2019-03-11T04:33:37.182Z,73.00
2019-03-11T04:36:03.479Z,72.70
2019-03-11T04:38:30.083Z,72.60
2019-03-11T04:40:56.507Z,72.70
2019-03-11T04:43:22.920Z,72.50
2019-03-11T04:45:49.343Z,72.20
2019-03-11T04:48:16.078Z,72.30
2019-03-11T04:50:42.584Z,72.10
2019-03-11T04:53:09.027Z,71.90
2019-03-11T04:55:35.759Z,72.00
2019-03-11T04:58:04.234Z,71.90
2019-03-11T05:00:31.577Z,72.00
2019-03-11T05:02:57.966Z,72.00
2019-03-11T05:05:24.386Z,72.10
2019-03-11T05:08:00.244Z,72.20
2019-03-11T05:10:25.119Z,72.30
2019-03-11T05:12:51.523Z,72.60
2019-03-11T05:15:17.842Z,72.60
2019-03-11T05:17:44.478Z,72.70
2019-03-11T05:20:14.886Z,72.70
2019-03-11T05:22:41.338Z,72.60
2019-03-11T05:25:10.746Z,72.60
2019-03-11T05:27:40.138Z,72.20
2019-03-11T05:30:19.537Z,72.20
2019-03-11T05:32:45.825Z,72.30
2019-03-11T05:35:12.255Z,72.20
2019-03-11T05:37:38.545Z,72.20
2019-03-11T05:40:13.053Z,72.20
2019-03-11T05:42:39.371Z,72.20
2019-03-11T05:45:08.381Z,72.00
2019-03-11T05:47:34.799Z,71.90
2019-03-11T05:50:01.098Z,71.90
2019-03-11T05:52:27.393Z,71.90
2019-03-11T05:54:53.822Z,71.90
2019-03-11T05:57:20.119Z,71.90
2019-03-11T05:59:46.617Z,71.90
2019-03-11T06:02:13.019Z,71.90
2019-03-11T06:04:39.418Z,71.90
2019-03-11T06:07:05.835Z,71.90
2019-03-11T06:09:32.458Z,71.80
2019-03-11T06:11:58.997Z,71.80
2019-03-11T06:14:25.409Z,71.80
2019-03-11T06:16:51.831Z,71.80
2019-03-11T06:19:18.248Z,71.70
2019-03-11T06:21:47.104Z,71.50
2019-03-11T06:24:13.425Z,71.40
2019-03-11T06:26:39.821Z,71.30
2019-03-11T06:29:06.149Z,71.30
2019-03-11T06:31:32.560Z,71.10
2019-03-11T06:33:58.872Z,71.10
2019-03-11T06:36:25.378Z,71.10
2019-03-11T06:38:51.784Z,70.90
2019-03-11T06:41:18.101Z,70.30
2019-03-11T06:43:44.637Z,69.80
2019-03-11T06:46:11.012Z,69.60
2019-03-11T06:48:37.325Z,69.50
2019-03-11T06:51:04.088Z,69.20
2019-03-11T06:53:30.462Z,69.10
2019-03-11T06:55:56.985Z,69.30
2019-03-11T06:58:23.596Z,69.00
2019-03-11T07:00:50.023Z,68.70
2019-03-11T07:03:16.591Z,68.80
2019-03-11T07:05:43.296Z,68.90
2019-03-11T07:08:09.734Z,68.60
2019-03-11T07:10:36.125Z,69.00
2019-03-11T07:13:02.548Z,69.00
2019-03-11T07:15:28.863Z,69.10
2019-03-11T07:17:55.155Z,70.00
2019-03-11T07:20:21.474Z,69.30
2019-03-11T07:22:47.897Z,68.90
2019-03-11T07:25:16.094Z,68.50
2019-03-11T07:27:42.423Z,68.20
2019-03-11T07:30:18.085Z,67.90
2019-03-11T07:32:44.746Z,67.70
2019-03-11T07:35:11.134Z,68.00
2019-03-11T07:37:37.444Z,67.10
2019-03-11T07:40:06.971Z,66.60
2019-03-11T07:42:33.261Z,67.50
2019-03-11T07:44:59.574Z,67.70
2019-03-11T07:47:25.869Z,67.80
2019-03-11T07:49:52.366Z,67.50
2019-03-11T07:52:18.939Z,67.50
2019-03-11T07:54:45.290Z,67.50
2019-03-11T07:57:12.008Z,67.50
2019-03-11T07:59:38.234Z,67.70
2019-03-11T08:02:04.642Z,67.70
2019-03-11T08:04:30.959Z,67.50
2019-03-11T08:06:57.567Z,67.70
2019-03-11T08:09:23.994Z,67.40
2019-03-11T08:11:50.407Z,67.40
2019-03-11T08:14:16.997Z,67.40
2019-03-11T08:16:43.659Z,67.30
2019-03-11T08:19:10.055Z,67.40
2019-03-11T08:21:36.529Z,67.30
2019-03-11T08:24:03.022Z,67.10
2019-03-11T08:26:29.418Z,67.20
2019-03-11T08:28:55.843Z,66.60
2019-03-11T08:31:22.129Z,66.20
2019-03-11T08:33:48.577Z,66.10
2019-03-11T08:36:14.872Z,66.10
2019-03-11T08:38:41.165Z,66.10
2019-03-11T08:41:07.591Z,66.20
2019-03-11T08:43:34.255Z,66.20
2019-03-11T08:46:00.573Z,66.70
2019-03-11T08:48:26.879Z,66.30
2019-03-11T08:50:53.278Z,65.70
2019-03-11T08:53:19.717Z,65.80
2019-03-11T08:55:46.120Z,66.30
2019-03-11T08:58:12.560Z,66.30
2019-03-11T09:00:45.295Z,66.20
2019-03-11T09:03:21.812Z,66.30
2019-03-11T09:05:54.045Z,66.20
2019-03-11T09:08:25.998Z,66.20
2019-03-11T09:10:57.248Z,66.20
2019-03-11T09:13:30.653Z,66.20
2019-03-11T09:16:02.733Z,66.20
2019-03-11T09:18:34.991Z,66.30
2019-03-11T09:21:05.692Z,66.00
2019-03-11T09:23:38.091Z,65.90
2019-03-11T09:26:10.356Z,65.60
2019-03-11T09:28:36.683Z,65.60
2019-03-11T09:31:03.449Z,65.60
2019-03-11T09:33:30.062Z,65.60
2019-03-11T09:35:56.722Z,65.60
2019-03-11T09:38:23.009Z,65.50
2019-03-11T09:40:49.422Z,65.70
2019-03-11T09:43:15.843Z,65.40
2019-03-11T09:45:42.235Z,65.30
2019-03-11T09:48:08.943Z,65.40
2019-03-11T09:50:35.366Z,65.40
2019-03-11T09:53:01.762Z,65.20
2019-03-11T09:55:28.736Z,64.80
2019-03-11T09:57:55.602Z,52.60
2019-03-11T10:00:24.927Z,55.90
2019-03-11T10:02:53.108Z,59.10
2019-03-11T10:05:19.803Z,59.50
2019-03-11T10:07:46.356Z,59.90
2019-03-11T10:10:15.157Z,59.60
2019-03-11T10:12:41.567Z,59.90
2019-03-11T10:15:13.562Z,61.10
2019-03-11T10:17:39.985Z,62.00
2019-03-11T10:20:09.277Z,62.50
2019-03-11T10:22:38.307Z,62.40
2019-03-11T10:25:11.589Z,62.90
2019-03-11T10:27:48.596Z,63.40
2019-03-11T10:30:22.970Z,63.10
2019-03-11T10:32:49.403Z,62.80
2019-03-11T10:35:31.395Z,62.80
2019-03-11T10:37:48.069Z,63.10
2019-03-11T10:40:22.706Z,63.30
2019-03-11T10:42:49.448Z,63.40
2019-03-11T10:45:16.270Z,63.00
2019-03-11T10:47:42.661Z,63.00
2019-03-11T10:50:12.196Z,62.80
2019-03-11T10:52:38.719Z,62.80
2019-03-11T10:55:11.252Z,62.70
2019-03-11T10:57:37.895Z,62.30
2019-03-11T11:00:11.270Z,62.30
2019-03-11T11:02:38.703Z,62.10
2019-03-11T11:05:08.221Z,61.70
2019-03-11T11:07:34.832Z,62.40
2019-03-11T11:10:03.185Z,61.50
2019-03-11T11:12:30.443Z,61.20
2019-03-11T11:14:56.853Z,60.90
2019-03-11T11:17:23.165Z,60.70
2019-03-11T11:19:49.840Z,60.70
2019-03-11T11:22:16.158Z,60.70
2019-03-11T11:24:42.559Z,60.80
2019-03-11T11:27:08.862Z,60.50
2019-03-11T11:29:35.173Z,60.40
2019-03-11T11:32:01.649Z,60.20
2019-03-11T11:34:28.164Z,60.20
2019-03-11T11:36:54.454Z,60.00
2019-03-11T11:39:20.865Z,59.90
2019-03-11T11:41:48.073Z,59.80
2019-03-11T11:44:14.536Z,59.70
2019-03-11T11:46:40.890Z,60.00
2019-03-11T11:49:07.214Z,60.20
2019-03-11T11:51:33.510Z,60.30
2019-03-11T11:53:59.934Z,60.50
2019-03-11T11:56:26.461Z,60.60
2019-03-11T11:58:52.997Z,60.50
2019-03-11T12:01:19.346Z,60.40
2019-03-11T12:03:47.404Z,59.60
2019-03-11T12:06:13.809Z,59.20
2019-03-11T12:08:40.114Z,58.90
2019-03-11T12:11:06.795Z,58.80
2019-03-11T12:13:33.480Z,58.80
2019-03-11T12:15:59.976Z,58.80
2019-03-11T12:18:26.383Z,58.50
2019-03-11T12:20:52.682Z,58.50
2019-03-11T12:23:18.974Z,58.70
2019-03-11T12:25:45.411Z,58.90
2019-03-11T12:28:11.810Z,58.60
2019-03-11T12:30:38.139Z,58.40
2019-03-11T12:33:04.779Z,58.60
2019-03-11T12:35:31.076Z,58.70
2019-03-11T12:37:57.496Z,58.40
2019-03-11T12:40:23.907Z,58.40
2019-03-11T12:42:50.207Z,58.20
2019-03-11T12:45:18.127Z,58.00
2019-03-11T12:47:44.526Z,57.70
2019-03-11T12:50:20.911Z,57.30
2019-03-11T12:52:47.305Z,57.90
2019-03-11T12:55:13.603Z,57.90
2019-03-11T12:57:40.145Z,58.30
2019-03-11T13:00:15.373Z,58.30
2019-03-11T13:02:41.804Z,58.30
2019-03-11T13:05:09.317Z,58.20
2019-03-11T13:07:35.613Z,58.50
2019-03-11T13:10:05.134Z,57.90
2019-03-11T13:12:31.581Z,57.60
2019-03-11T13:14:57.899Z,57.30
2019-03-11T13:17:24.651Z,57.30
2019-03-11T13:19:51.142Z,57.70
2019-03-11T13:22:17.594Z,57.60
2019-03-11T13:24:44.236Z,57.40
2019-03-11T13:27:10.632Z,57.10
2019-03-11T13:29:36.950Z,57.40
2019-03-11T13:32:03.407Z,57.30
2019-03-11T13:34:29.901Z,57.30
2019-03-11T13:36:56.405Z,57.00
2019-03-11T13:39:22.710Z,57.30
2019-03-11T13:41:49.056Z,57.30
2019-03-11T13:44:15.359Z,57.00
2019-03-11T13:46:42.097Z,56.80
2019-03-11T13:49:08.614Z,57.30
2019-03-11T13:51:35.012Z,57.20
2019-03-11T13:54:01.572Z,57.30
2019-03-11T13:56:27.873Z,57.00
2019-03-11T13:58:54.200Z,56.80
2019-03-11T14:01:21.397Z,56.80
2019-03-11T14:03:47.856Z,56.70
2019-03-11T14:06:14.454Z,56.70
2019-03-11T14:08:40.878Z,57.00
2019-03-11T14:11:07.306Z,56.70
2019-03-11T14:13:33.606Z,56.50
2019-03-11T14:16:00.126Z,56.60
2019-03-11T14:18:26.513Z,56.80
2019-03-11T14:20:52.918Z,57.00
2019-03-11T14:23:19.721Z,56.80
2019-03-11T14:25:46.007Z,56.60
2019-03-11T14:28:13.963Z,56.50
2019-03-11T14:30:40.716Z,56.50
2019-03-11T14:33:07.446Z,56.20
2019-03-11T14:35:33.877Z,56.50
2019-03-11T14:38:00.169Z,56.50
2019-03-11T14:40:26.567Z,56.10
2019-03-11T14:42:52.971Z,56.30
2019-03-11T14:45:20.717Z,56.10
2019-03-11T14:47:47.051Z,56.80
2019-03-11T14:50:13.706Z,56.40
2019-03-11T14:52:40.178Z,56.20
2019-03-11T14:55:08.404Z,55.30
2019-03-11T14:57:34.685Z,56.10
2019-03-11T15:00:01.128Z,55.90
2019-03-11T15:02:27.707Z,56.10
2019-03-11T15:04:54.091Z,56.00
2019-03-11T15:07:20.554Z,56.00
2019-03-11T15:09:51.293Z,56.30
2019-03-11T15:12:21.686Z,56.30
2019-03-11T15:14:48.030Z,56.10
2019-03-11T15:17:15.216Z,56.30
2019-03-11T15:19:41.798Z,56.10
2019-03-11T15:22:08.289Z,56.10
2019-03-11T15:24:34.604Z,56.40
2019-03-11T15:27:01.050Z,56.50
2019-03-11T15:29:27.294Z,56.20
2019-03-11T15:31:53.616Z,56.30
2019-03-11T15:34:20.330Z,56.10
2019-03-11T15:36:46.781Z,56.10
2019-03-11T15:39:13.078Z,56.30
2019-03-11T15:41:39.392Z,56.30
2019-03-11T15:44:05.898Z,56.10
2019-03-11T15:46:39.262Z,55.70
2019-03-11T15:49:00.440Z,56.60
2019-03-11T15:51:36.239Z,55.90
2019-03-11T15:53:54.839Z,55.90
2019-03-11T15:56:23.721Z,56.10
2019-03-11T15:58:50.030Z,56.10
2019-03-11T16:01:16.320Z,56.10
2019-03-11T16:03:42.856Z,55.90
2019-03-11T16:06:14.263Z,55.90
2019-03-11T16:08:40.702Z,56.10
2019-03-11T16:11:07.098Z,56.00
2019-03-11T16:13:33.433Z,55.90
2019-03-11T16:15:59.836Z,55.70
2019-03-11T16:18:26.197Z,55.80
2019-03-11T16:20:52.711Z,55.70
2019-03-11T16:23:19.109Z,55.60
2019-03-11T16:25:45.428Z,55.30
2019-03-11T16:28:11.822Z,55.20
2019-03-11T16:30:43.191Z,55.00
2019-03-11T16:33:17.664Z,55.00
2019-03-11T16:35:44.509Z,55.20
2019-03-11T16:38:10.830Z,55.20
2019-03-11T16:40:37.228Z,55.10
2019-03-11T16:43:03.521Z,54.80
2019-03-11T16:45:30.031Z,55.00
2019-03-11T16:47:58.121Z,55.30
2019-03-11T16:50:25.806Z,55.70
2019-03-11T16:52:52.179Z,55.20
2019-03-11T16:55:39.784Z,54.90
2019-03-11T16:58:06.261Z,54.80
2019-03-11T17:00:37.076Z,55.20
2019-03-11T17:03:03.410Z,55.20
2019-03-11T17:05:29.917Z,55.00
2019-03-11T17:07:56.246Z,55.20
2019-03-11T17:10:23.842Z,55.00
2019-03-11T17:12:50.133Z,55.10
2019-03-11T17:15:16.663Z,55.20
2019-03-11T17:17:43.528Z,55.20
2019-03-11T17:20:14.678Z,55.20
2019-03-11T17:22:41.083Z,55.20
2019-03-11T17:25:10.101Z,55.20
2019-03-11T17:27:36.441Z,55.20
2019-03-11T17:30:06.430Z,55.20
2019-03-11T17:32:33.173Z,55.20
2019-03-11T17:34:59.870Z,55.20
2019-03-11T17:37:26.573Z,55.20
2019-03-11T17:39:52.882Z,55.40
2019-03-11T17:42:19.297Z,55.30
2019-03-11T17:44:48.136Z,55.10
2019-03-11T17:47:14.426Z,55.40
2019-03-11T17:49:41.059Z,55.30
2019-03-11T17:52:07.363Z,55.20
2019-03-11T17:54:33.982Z,55.20
2019-03-11T17:57:00.730Z,55.40
2019-03-11T17:59:27.378Z,55.50
2019-03-11T18:01:53.789Z,55.60
2019-03-11T18:04:20.298Z,55.70
2019-03-11T18:06:47.081Z,55.80
2019-03-11T18:09:13.585Z,55.80
2019-03-11T18:11:40.308Z,56.00
2019-03-11T18:14:06.920Z,55.90
2019-03-11T18:16:33.448Z,56.10
2019-03-11T18:18:59.961Z,56.20
2019-03-11T18:21:26.586Z,56.40
2019-03-11T18:23:52.904Z,56.50
2019-03-11T18:26:19.427Z,56.30
2019-03-11T18:28:46.029Z,56.30
2019-03-11T18:31:12.677Z,56.00
2019-03-11T18:33:38.993Z,56.00
2019-03-11T18:36:07.496Z,56.00
2019-03-11T18:38:33.783Z,55.90
2019-03-11T18:41:00.050Z,55.70
2019-03-11T18:43:26.590Z,55.60
2019-03-11T18:45:53.023Z,55.60
2019-03-11T18:48:19.447Z,55.50
2019-03-11T18:50:45.948Z,55.50
2019-03-11T18:53:12.572Z,55.50
2019-03-11T18:55:38.990Z,55.30
2019-03-11T18:58:05.513Z,55.50
2019-03-11T19:00:32.127Z,55.30
2019-03-11T19:02:58.432Z,55.60
2019-03-11T19:05:24.848Z,56.00
2019-03-11T19:07:51.484Z,56.00
2019-03-11T19:10:19.408Z,56.00
2019-03-11T19:12:45.679Z,56.80
2019-03-11T19:15:17.651Z,56.80
2019-03-11T19:17:44.324Z,56.80
2019-03-11T19:20:14.341Z,57.10
2019-03-11T19:22:41.041Z,57.70
2019-03-11T19:25:08.240Z,57.40
2019-03-11T19:27:36.149Z,58.50
2019-03-11T19:30:11.593Z,58.80
2019-03-11T19:32:38.260Z,58.20
2019-03-11T19:35:06.266Z,59.20
2019-03-11T19:37:32.803Z,58.50
2019-03-11T19:39:59.214Z,58.70
2019-03-11T19:42:25.805Z,59.40
2019-03-11T19:44:52.540Z,59.30
2019-03-11T19:47:18.909Z,59.90
2019-03-11T19:49:45.170Z,59.90
2019-03-11T19:52:11.478Z,61.50
2019-03-11T19:54:37.985Z,59.70
2019-03-11T19:57:04.413Z,59.60
2019-03-11T19:59:31.077Z,59.60
2019-03-11T20:01:57.562Z,61.00
2019-03-11T20:04:23.839Z,60.30
2019-03-11T20:06:50.296Z,60.20
2019-03-11T20:09:16.714Z,60.20
2019-03-11T20:11:43.192Z,60.00
2019-03-11T20:14:09.559Z,60.00
2019-03-11T20:16:35.848Z,59.90
2019-03-11T20:19:02.493Z,60.80
2019-03-11T20:21:28.943Z,59.70
2019-03-11T20:23:55.459Z,59.70
2019-03-11T20:26:21.843Z,59.60
2019-03-11T20:28:48.221Z,59.60
2019-03-11T20:31:14.760Z,59.60
2019-03-11T20:33:41.129Z,59.50
2019-03-11T20:36:19.808Z,59.50
2019-03-11T20:38:35.563Z,59.30
2019-03-11T20:41:02.222Z,59.40
2019-03-11T20:43:28.685Z,59.30
2019-03-11T20:45:55.307Z,59.20
2019-03-11T20:48:21.667Z,59.10
2019-03-11T20:50:48.137Z,59.00
2019-03-11T20:53:14.471Z,59.20
2019-03-11T20:55:41.201Z,59.30
2019-03-11T20:58:08.012Z,59.30
2019-03-11T21:00:34.633Z,59.10
2019-03-11T21:03:00.933Z,59.00
2019-03-11T21:05:35.929Z,59.20
2019-03-11T21:08:02.371Z,59.20
2019-03-11T21:10:28.668Z,59.20
2019-03-11T21:12:55.317Z,59.20
2019-03-11T21:15:21.684Z,59.20
2019-03-11T21:17:48.405Z,59.10
2019-03-11T21:20:16.390Z,59.20
2019-03-11T21:22:42.870Z,59.20
2019-03-11T21:25:15.489Z,59.20
2019-03-11T21:27:41.738Z,59.30
2019-03-11T21:30:13.811Z,59.50
2019-03-11T21:32:40.089Z,59.10
2019-03-11T21:35:07.527Z,59.20
2019-03-11T21:37:34.115Z,59.10
2019-03-11T21:40:00.545Z,59.00
2019-03-11T21:42:27.309Z,58.90
2019-03-11T21:44:53.726Z,58.80
2019-03-11T21:47:20.283Z,58.90
2019-03-11T21:49:46.877Z,58.70
2019-03-11T21:52:13.399Z,58.70
2019-03-11T21:54:39.802Z,58.70
2019-03-11T21:57:06.206Z,58.70
2019-03-11T21:59:33.019Z,58.60
2019-03-11T22:01:59.543Z,58.70
2019-03-11T22:04:25.843Z,58.80
2019-03-11T22:06:52.127Z,58.70
2019-03-11T22:09:18.458Z,58.60
2019-03-11T22:11:45.061Z,58.50
2019-03-11T22:14:11.469Z,58.60
2019-03-11T22:16:37.768Z,58.60
2019-03-11T22:19:04.304Z,58.50
2019-03-11T22:21:30.718Z,58.50
2019-03-11T22:23:57.055Z,58.50
2019-03-11T22:26:23.464Z,58.50
2019-03-11T22:28:49.793Z,58.50
2019-03-11T22:31:16.092Z,58.50
2019-03-11T22:33:42.700Z,58.50
2019-03-11T22:36:09.000Z,58.40
2019-03-11T22:38:35.421Z,58.50
2019-03-11T22:41:01.824Z,58.50
2019-03-11T22:43:28.141Z,58.60
2019-03-11T22:45:54.434Z,58.50
2019-03-11T22:48:21.150Z,58.50
2019-03-11T22:50:47.661Z,58.50
2019-03-11T22:53:14.262Z,59.20
2019-03-11T22:55:40.577Z,58.50
2019-03-11T22:58:06.874Z,58.50
2019-03-11T23:00:40.999Z,58.50
2019-03-11T23:03:08.134Z,58.50
2019-03-11T23:05:34.436Z,58.50
2019-03-11T23:08:00.779Z,58.40
2019-03-11T23:10:27.160Z,58.50
2019-03-11T23:12:53.553Z,59.20
2019-03-11T23:15:20.156Z,58.60
2019-03-11T23:17:46.558Z,59.20
2019-03-11T23:20:12.879Z,58.70
2019-03-11T23:22:39.174Z,58.80
2019-03-11T23:25:07.257Z,58.70
2019-03-11T23:27:35.200Z,58.80
2019-03-11T23:30:03.790Z,58.90
2019-03-11T23:32:30.669Z,58.80
2019-03-11T23:34:57.086Z,58.90
2019-03-11T23:37:23.481Z,59.00
2019-03-11T23:39:49.905Z,58.90
2019-03-11T23:42:16.311Z,59.10
2019-03-11T23:44:42.758Z,59.30
2019-03-11T23:47:09.166Z,59.30
2019-03-11T23:49:35.557Z,59.30
2019-03-11T23:52:02.064Z,59.40
2019-03-11T23:54:28.797Z,59.30
2019-03-11T23:56:55.393Z,59.30
2019-03-11T23:59:21.691Z,59.30
